Flight Track Log - Related Links

Times and Time Zones

All times are in EDT time to prevent confusion due to time zone crossing. See the VH-FDJ flight status page for this flight to view local times or setup timezone preferences in your user account.

Time Position Orientation Groundspeed Altitude Reporting Facility
EDT Latitude Longitude Course Direction KTS MPH feet Rate Location/Type
Thu 02:16:57 AM -25.9547 131.3729 47° Northeast 3,000  Level Aus ATC (Calculated)
Thu 02:17:38 AM -25.8878 131.4525 47° Northeast 3,000  Level Aus ATC (Calculated)
Thu 02:19:00 AM -25.8223 131.5304 47° Northeast  Level FlightAware Approximate
Thu 02:20:00 AM -25.7743 131.5873 47° Northeast  Level FlightAware Approximate
Thu 02:20:38 AM -25.7580 131.6065 47° Northeast 3,000  Level Aus ATC (Calculated)
Thu 02:21:00 AM -25.7263 131.6441 47° Northeast  Level FlightAware Approximate
Thu 02:21:58 AM -25.6971 131.6786 47° Northeast 3,000  Level Aus ATC (Calculated)
Thu 02:22:00 AM -25.6924 131.6842 47° Northeast  Level FlightAware Approximate
Thu 02:22:04 AM -25.6971 131.6786 47° Northeast 3,000  Level Aus ATC (Calculated)
Thu 02:23:58 AM -25.5791 131.8181 227° Southwest 3,000  Level Aus ATC (Calculated)
Thu 02:24:00 AM -25.6043 131.7883 47° Northeast  Level FlightAware Approximate
Thu 02:25:00 AM -25.5294 131.8766 47° Northeast  Level FlightAware Approximate
Thu 02:26:00 AM -25.4813 131.9332 47° Northeast  Level FlightAware Approximate
Thu 02:27:00 AM -25.4331 131.9898 47° Northeast  Level FlightAware Approximate
Thu 02:28:00 AM -25.3850 132.0464 47° Northeast  Level FlightAware Approximate
Thu 02:28:44 AM -25.3574 132.0788 47° Northeast 3,000  Level Aus ATC (Calculated)
Thu 02:29:00 AM -25.3368 132.1028 47° Northeast  Level FlightAware Approximate
Thu 02:30:00 AM -25.2964 132.1503 47° Northeast  Level FlightAware Approximate
Thu 02:30:28 AM -25.2603 132.1926 47° Northeast 3,000  Level Aus ATC (Calculated)
Thu 02:32:00 AM -25.1863 132.2790 47° Northeast  Level FlightAware Approximate
Thu 02:33:00 AM -25.1381 132.3353 47° Northeast  Level FlightAware Approximate
Thu 02:33:30 AM -25.1235 132.3523 47° Northeast 3,000  Level Aus ATC (Calculated)
Thu 02:33:59 AM -25.0822 132.4005 47° Northeast 3,000  Level Aus ATC (Calculated)
Thu 02:35:00 AM -25.0331 132.4576 47° Northeast  Level FlightAware Approximate
Thu 02:36:00 AM -24.9847 132.5138 46° Northeast  Level FlightAware Approximate
Thu 02:37:00 AM -24.9364 132.5699 46° Northeast  Level FlightAware Approximate
Thu 02:38:00 AM -24.8880 132.6260 46° Northeast  Level FlightAware Approximate
Thu 02:39:00 AM -24.8396 132.6820 46° Northeast  Level FlightAware Approximate
Thu 02:40:00 AM -24.7913 132.7380 46° Northeast  Level FlightAware Approximate
Thu 02:41:00 AM -24.7428 132.7939 46° Northeast  Level FlightAware Approximate
Thu 02:41:18 AM -24.7210 132.8191 46° Northeast 3,000  Level Aus ATC (Calculated)
Thu 02:43:00 AM -24.6386 132.9141 46° Northeast  Level FlightAware Approximate
Thu 02:44:00 AM -24.5901 132.9699 46° Northeast  Level FlightAware Approximate
Thu 02:45:00 AM -24.5416 133.0257 46° Northeast  Level FlightAware Approximate
Thu 02:45:27 AM -24.5475 133.0188 46° Northeast 3,000  Level Aus ATC (Calculated)
Thu 02:46:01 AM -24.5005 133.0729 46° Northeast 3,000  Level Aus ATC (Calculated)
Thu 02:48:00 AM -24.4042 133.1833 46° Northeast  Level FlightAware Approximate
Thu 02:49:00 AM -24.3556 133.2389 46° Northeast  Level FlightAware Approximate
Thu 02:49:46 AM -24.3240 133.2751 46° Northeast 3,000  Level Aus ATC (Calculated)
Thu 02:50:00 AM -24.3070 133.2944 46° Northeast  Level FlightAware Approximate
Thu 02:51:00 AM -24.2640 133.3435 46° Northeast  Level FlightAware Approximate
Thu 02:52:00 AM -24.2153 133.3990 46° Northeast  Level FlightAware Approximate
Thu 02:53:00 AM -24.1667 133.4544 46° Northeast  Level FlightAware Approximate
Thu 02:53:48 AM -24.1250 133.5018 318° Northwest 3,000  Level Aus ATC (Calculated)
Thu 02:53:48 AM -24.1250 133.5018 46° Northeast 3,000  Level Aus ATC (Calculated)
Thu 02:54:00 AM -24.1180 133.5098 46° Northeast  Level FlightAware Approximate
Thu 02:55:00 AM -24.0666 133.5683 46° Northeast  Level FlightAware Approximate
Thu 02:55:53 AM -24.0005 133.6432 226° Southwest 3,000  Level Aus ATC (Calculated)
Thu 02:56:00 AM -24.0178 133.6235 46° Northeast  Level FlightAware Approximate
Thu 02:57:00 AM -23.9461 133.7049 46° Northeast  Level FlightAware Approximate
Thu 02:57:48 AM -23.9096 133.7461 360° North 3,000  Level Aus ATC (Calculated)
Thu 02:57:55 AM -23.9096 133.7461 46° Northeast 3,000  Level Aus ATC (Calculated)
Thu 02:59:00 AM -23.8568 133.8058 46° Northeast  Level FlightAware Approximate
Thu 03:00:00 AM -23.8080 133.8610 46° Northeast  Level FlightAware Approximate
Thu 03:00:09 AM -23.7927 133.8782 122° Southeast 1,800  Level Aus ATC (Calculated)
Thu 03:02:00 AM -23.8067 133.9022 North  Level Estimated
Thu 03:03:00 AM -23.8067 133.9022 302° West  Level Estimated

Login

Don't have an account? Register now (free) for customized features, flight alerts, and more!